General Aviation Weather

Text Reports

Enter one or more of the following location identifiers separated by a space:

Zip Code, Four-Character ICAO or Three-Character IATA airport codes.

METAR - Aviation Routine Weather Report
KTOR - Torrington, Wyoming
Updated at 8:53 PM GMT on July 29, 2016 (2:53 PM MDT):
METAR KTOR 292053Z AUTO 14004KT 10SM -RA FEW075 OVC110 27/13 A3004 RMK AO2 RAB32 SLP128 P0000 60000 T02670133 58021 TSNO
TAF - Terminal Area Forecast
KTOR - Torrington, Wyoming
Updated at 8:53 PM GMT on July 29, 2016 (2:53 PM MDT):
No TAF is currently available for this location.
Decoded:
No decoded TAF is available.
PIREP - Pilot Weather Report
KTOR - Torrington, Wyoming
Updated at 8:53 PM GMT on July 29, 2016 (2:53 PM MDT):
No PIREP is currently available for this location.
AIRMET - Airmens Meteorological Information
KTOR - Torrington, Wyoming
Updated at 8:53 PM GMT on July 29, 2016 (2:53 PM MDT):
No AIRMET is currently available for this location.
SIGMET - Significant Meteorological Information
KTOR - Torrington, Wyoming
Updated at 8:53 PM GMT on July 29, 2016 (2:53 PM MDT):
No SIGMET is currently available for this location.
NOTAM - Notice to Airmen
KTOR - Torrington, Wyoming
Updated at 8:53 PM GMT on July 29, 2016 (2:53 PM MDT):
No NOTAM is currently available for this location.
Forecast Area
KTOR - Torrington, Wyoming
Updated at 8:53 PM GMT on July 29, 2016 (2:53 PM MDT):
No NOTAM is currently available for this location.
Aviation Weather Maps